createdAt,value
2019-01-19T00:02:16.523Z,10.13
2019-01-19T00:05:02.725Z,10.93
2019-01-19T00:07:39.325Z,10.63
2019-01-19T00:10:21.536Z,10.23
2019-01-19T00:13:09.274Z,12.30
2019-01-19T00:15:43.490Z,10.17
2019-01-19T00:18:40.318Z,10.40
2019-01-19T00:21:33.956Z,10.43
2019-01-19T00:24:24.708Z,9.50
2019-01-19T00:27:12.378Z,8.50
2019-01-19T00:29:49.072Z,8.07
2019-01-19T00:32:31.980Z,8.43
2019-01-19T00:35:19.310Z,9.40
2019-01-19T00:38:07.038Z,8.83
2019-01-19T00:40:54.730Z,8.97
2019-01-19T00:43:54.518Z,10.63
2019-01-19T00:47:01.693Z,10.73
2019-01-19T00:49:49.470Z,13.73
2019-01-19T00:52:36.322Z,11.43
2019-01-19T00:55:11.672Z,9.87
2019-01-19T00:57:45.304Z,11.30
2019-01-19T01:00:19.824Z,11.03
2019-01-19T01:03:00.486Z,11.67
2019-01-19T01:06:03.455Z,10.80
2019-01-19T01:08:45.582Z,11.57
2019-01-19T01:11:23.307Z,11.27
2019-01-19T01:14:19.822Z,11.53
2019-01-19T01:17:05.914Z,10.97
2019-01-19T01:19:51.432Z,13.93
2019-01-19T01:22:57.412Z,12.40
2019-01-19T01:25:45.120Z,12.57
2019-01-19T01:28:47.968Z,11.53
2019-01-19T01:31:41.422Z,10.90
2019-01-19T01:34:27.721Z,13.03
2019-01-19T01:37:18.500Z,10.53
2019-01-19T01:40:08.008Z,11.80
2019-01-19T01:43:13.635Z,11.40
2019-01-19T01:45:48.144Z,12.27
2019-01-19T01:48:51.080Z,10.43
2019-01-19T01:51:44.456Z,11.83
2019-01-19T01:54:25.798Z,11.87
2019-01-19T01:56:55.494Z,11.60
2019-01-19T01:59:37.003Z,11.73
2019-01-19T02:02:14.670Z,11.73
2019-01-19T02:05:05.400Z,9.50
2019-01-19T02:07:59.257Z,10.40
2019-01-19T02:10:55.830Z,10.40
2019-01-19T02:13:52.326Z,10.07
2019-01-19T02:16:57.974Z,9.63
2019-01-19T02:19:44.101Z,11.83
2019-01-19T02:22:34.934Z,10.83
2019-01-19T02:25:25.728Z,9.83
2019-01-19T02:28:07.707Z,9.93
2019-01-19T02:31:01.229Z,9.70
2019-01-19T02:33:48.376Z,11.10
2019-01-19T02:36:36.100Z,10.73
2019-01-19T02:39:26.834Z,10.90
2019-01-19T02:42:15.615Z,11.23
2019-01-19T02:45:06.221Z,9.63
2019-01-19T02:47:45.648Z,10.27
2019-01-19T02:50:28.633Z,9.43
2019-01-19T02:53:22.281Z,9.47
2019-01-19T02:56:24.875Z,9.03
2019-01-19T02:59:12.664Z,9.10
2019-01-19T03:02:06.172Z,8.60
2019-01-19T03:04:46.395Z,8.70
2019-01-19T03:07:43.192Z,9.33
2019-01-19T03:10:32.287Z,9.83
2019-01-19T03:13:11.443Z,9.60
2019-01-19T03:16:04.999Z,9.47
2019-01-19T03:19:04.744Z,8.80
2019-01-19T03:22:07.355Z,9.03
2019-01-19T03:25:01.070Z,8.07
2019-01-19T03:27:37.072Z,8.87
2019-01-19T03:30:18.797Z,8.37
2019-01-19T03:32:52.695Z,8.13
2019-01-19T03:35:31.368Z,8.30
2019-01-19T03:38:19.058Z,7.97
2019-01-19T03:40:56.256Z,8.70
2019-01-19T03:43:33.074Z,8.67
2019-01-19T03:46:10.561Z,8.80
2019-01-19T03:49:01.437Z,8.30
2019-01-19T03:51:35.121Z,8.07
2019-01-19T03:54:34.729Z,8.23
2019-01-19T03:57:25.611Z,8.07
2019-01-19T04:00:00.611Z,8.10
2019-01-19T04:02:51.175Z,7.77
2019-01-19T04:05:41.688Z,9.27
2019-01-19T04:08:32.661Z,8.00
2019-01-19T04:11:12.969Z,7.50
2019-01-19T04:13:54.899Z,8.07
2019-01-19T04:16:45.649Z,8.43
2019-01-19T04:19:31.687Z,7.67
2019-01-19T04:22:22.531Z,7.63
2019-01-19T04:25:00.013Z,7.97
2019-01-19T04:27:28.629Z,8.23
2019-01-19T04:29:57.212Z,7.80
2019-01-19T04:32:25.797Z,9.23
2019-01-19T04:34:54.405Z,10.67
2019-01-19T04:37:22.992Z,8.10
2019-01-19T04:39:51.589Z,8.63
2019-01-19T04:42:20.297Z,8.50
2019-01-19T04:44:48.879Z,8.30
2019-01-19T04:47:17.463Z,7.20
2019-01-19T04:49:46.080Z,8.07
2019-01-19T04:52:14.684Z,8.20
2019-01-19T04:54:43.255Z,8.17
2019-01-19T04:57:11.867Z,7.60
2019-01-19T04:59:40.493Z,8.00
2019-01-19T05:02:09.067Z,7.93
2019-01-19T05:04:37.723Z,7.43
2019-01-19T05:07:06.307Z,7.90
2019-01-19T05:09:34.903Z,8.90
2019-01-19T05:12:03.505Z,8.43
2019-01-19T05:14:32.115Z,6.90
2019-01-19T05:17:00.715Z,7.73
2019-01-19T05:19:29.340Z,7.23
2019-01-19T05:21:57.977Z,7.23
2019-01-19T05:24:26.557Z,7.40
2019-01-19T05:26:55.169Z,7.43
2019-01-19T05:29:23.759Z,7.30
2019-01-19T05:31:52.345Z,7.03
2019-01-19T05:34:20.948Z,7.43
2019-01-19T05:36:49.543Z,8.27
2019-01-19T05:39:18.135Z,11.30
2019-01-19T05:41:46.749Z,7.63
2019-01-19T05:44:15.328Z,7.67
2019-01-19T05:46:43.935Z,7.33
2019-01-19T05:49:12.650Z,7.77
2019-01-19T05:51:41.230Z,6.30
2019-01-19T05:54:09.891Z,7.07
2019-01-19T05:56:38.509Z,7.47
2019-01-19T05:59:07.082Z,7.47
2019-01-19T06:01:35.778Z,6.73
2019-01-19T06:04:04.504Z,6.90
2019-01-19T06:06:33.077Z,6.67
2019-01-19T06:09:01.658Z,8.00
2019-01-19T06:11:30.245Z,7.23
2019-01-19T06:13:58.835Z,7.37
2019-01-19T06:16:27.404Z,8.30
2019-01-19T06:18:56.201Z,7.37
2019-01-19T06:21:28.567Z,7.40
2019-01-19T06:23:57.130Z,7.43
2019-01-19T06:26:25.778Z,7.03
2019-01-19T06:28:54.347Z,6.80
2019-01-19T06:31:22.986Z,7.13
2019-01-19T06:33:51.608Z,7.20
2019-01-19T06:36:20.202Z,8.07
2019-01-19T06:38:48.799Z,7.03
2019-01-19T06:41:17.408Z,6.40
2019-01-19T06:43:46.006Z,6.73
2019-01-19T06:46:14.588Z,6.97
2019-01-19T06:48:43.236Z,7.17
2019-01-19T06:51:11.830Z,6.73
2019-01-19T06:53:40.416Z,6.77
2019-01-19T06:56:09.020Z,6.50
2019-01-19T06:58:37.609Z,6.80
2019-01-19T07:01:06.180Z,8.73
2019-01-19T07:03:34.826Z,6.70
2019-01-19T07:06:03.426Z,7.10
2019-01-19T07:08:32.012Z,7.10
2019-01-19T07:11:00.627Z,6.73
2019-01-19T07:13:29.230Z,7.83
2019-01-19T07:15:57.796Z,6.70
2019-01-19T07:18:26.397Z,7.37
2019-01-19T07:20:54.973Z,6.70
2019-01-19T07:23:23.556Z,6.27
2019-01-19T07:25:52.160Z,7.27
2019-01-19T07:28:20.746Z,7.67
2019-01-19T07:30:49.343Z,8.63
2019-01-19T07:33:17.958Z,7.10
2019-01-19T07:35:46.543Z,6.33
2019-01-19T07:38:15.132Z,6.60
2019-01-19T07:40:43.731Z,7.27
2019-01-19T07:43:14.181Z,6.90
2019-01-19T07:45:42.776Z,7.80
2019-01-19T07:48:11.381Z,6.43
2019-01-19T07:50:39.964Z,7.20
2019-01-19T07:53:08.551Z,6.40
2019-01-19T07:55:37.156Z,8.20
2019-01-19T07:58:05.735Z,6.10
2019-01-19T08:00:34.338Z,7.07
2019-01-19T08:03:02.945Z,6.80
2019-01-19T08:05:31.523Z,7.10
2019-01-19T08:08:00.109Z,8.43
2019-01-19T08:10:28.741Z,6.83
2019-01-19T08:12:57.337Z,7.57
2019-01-19T08:15:26.381Z,6.87
2019-01-19T08:17:54.991Z,7.83
2019-01-19T08:20:23.580Z,7.67
2019-01-19T08:22:52.266Z,7.80
2019-01-19T08:25:20.865Z,8.93
2019-01-19T08:27:49.555Z,6.73
2019-01-19T08:30:19.361Z,6.97
2019-01-19T08:32:47.988Z,8.20
2019-01-19T08:35:17.599Z,6.40
2019-01-19T08:37:46.239Z,7.57
2019-01-19T08:40:17.631Z,7.50
2019-01-19T08:42:47.641Z,7.80
2019-01-19T08:45:17.097Z,8.03
2019-01-19T08:47:45.683Z,7.73
2019-01-19T08:50:16.045Z,8.13
2019-01-19T08:52:44.665Z,8.77
2019-01-19T08:55:13.265Z,7.27
2019-01-19T08:57:41.855Z,7.93
2019-01-19T09:00:12.178Z,9.63
2019-01-19T09:02:40.759Z,7.70
2019-01-19T09:05:09.537Z,8.50
2019-01-19T09:07:38.151Z,14.10
2019-01-19T09:10:08.003Z,9.53
2019-01-19T09:12:36.607Z,7.03
2019-01-19T09:15:05.573Z,6.90
2019-01-19T09:17:34.169Z,6.17
2019-01-19T09:20:02.759Z,8.03
2019-01-19T09:22:32.082Z,8.87
2019-01-19T09:25:00.767Z,10.27
2019-01-19T09:27:30.093Z,7.47
2019-01-19T09:29:58.709Z,7.87
2019-01-19T09:32:27.701Z,6.57
2019-01-19T09:34:56.307Z,5.87
2019-01-19T09:37:24.915Z,5.80
2019-01-19T09:39:53.494Z,7.00
2019-01-19T09:42:22.093Z,8.00
2019-01-19T09:44:50.719Z,8.70
2019-01-19T09:47:19.301Z,10.00
2019-01-19T09:49:47.905Z,7.77
2019-01-19T09:52:21.141Z,8.60
2019-01-19T09:54:46.984Z,8.30
2019-01-19T09:57:15.594Z,9.63
2019-01-19T09:59:44.183Z,7.37
2019-01-19T10:02:12.891Z,7.83
2019-01-19T10:04:41.634Z,9.63
2019-01-19T10:07:10.295Z,7.83
2019-01-19T10:09:38.882Z,9.23
2019-01-19T10:12:07.510Z,7.53
2019-01-19T10:14:36.140Z,7.40
2019-01-19T10:17:04.740Z,8.37
2019-01-19T10:19:33.338Z,6.93
2019-01-19T10:22:01.955Z,7.97
2019-01-19T10:24:30.559Z,8.23
2019-01-19T10:26:59.139Z,8.73
2019-01-19T10:29:29.320Z,7.17
2019-01-19T10:31:57.891Z,8.47
2019-01-19T10:34:26.488Z,8.00
2019-01-19T10:36:55.086Z,7.50
2019-01-19T10:39:23.682Z,9.07
2019-01-19T10:41:52.290Z,11.67
2019-01-19T10:44:20.910Z,7.17
2019-01-19T10:46:49.494Z,8.13
2019-01-19T10:49:18.081Z,8.37
2019-01-19T10:51:46.716Z,8.03
2019-01-19T10:54:16.579Z,7.87
2019-01-19T10:56:45.175Z,7.70
2019-01-19T10:59:13.783Z,9.07
2019-01-19T11:01:42.391Z,9.87
2019-01-19T11:04:10.984Z,9.33
2019-01-19T11:06:39.637Z,11.87
2019-01-19T11:09:08.228Z,9.80
2019-01-19T11:11:36.820Z,8.87
2019-01-19T11:14:05.546Z,8.90
2019-01-19T11:16:34.140Z,9.20
2019-01-19T11:19:02.740Z,10.97
2019-01-19T11:21:31.360Z,10.60
2019-01-19T11:23:59.946Z,9.83
2019-01-19T11:26:28.569Z,12.77
2019-01-19T11:28:57.184Z,12.30
2019-01-19T11:31:25.868Z,11.30
2019-01-19T11:33:54.474Z,11.70
2019-01-19T11:36:23.133Z,12.03
2019-01-19T11:38:51.753Z,10.53
2019-01-19T11:41:20.366Z,11.47
2019-01-19T11:43:49.008Z,12.03
2019-01-19T11:46:17.592Z,12.53
2019-01-19T11:48:46.186Z,11.87
2019-01-19T11:51:14.822Z,12.27
2019-01-19T11:53:43.478Z,13.80
2019-01-19T11:56:12.444Z,12.30
2019-01-19T11:58:41.106Z,12.73
2019-01-19T12:01:09.734Z,13.13
2019-01-19T12:03:38.317Z,12.40
2019-01-19T12:06:06.968Z,12.63
2019-01-19T12:08:35.563Z,12.43
2019-01-19T12:11:04.202Z,14.57
2019-01-19T12:13:32.807Z,13.87
2019-01-19T12:16:01.402Z,13.30
2019-01-19T12:18:30.006Z,14.07
2019-01-19T12:20:58.607Z,12.87
2019-01-19T12:23:27.206Z,13.87
2019-01-19T12:25:55.829Z,13.83
2019-01-19T12:28:24.460Z,12.40
2019-01-19T12:30:53.052Z,13.20
2019-01-19T12:33:21.707Z,14.50
2019-01-19T12:35:50.325Z,13.30
2019-01-19T12:38:18.939Z,13.57
2019-01-19T12:40:47.535Z,12.73
2019-01-19T12:43:17.505Z,13.67
2019-01-19T12:45:56.631Z,13.97
2019-01-19T12:48:25.284Z,14.77
2019-01-19T12:50:53.891Z,12.60
2019-01-19T12:53:22.519Z,15.33
2019-01-19T12:55:51.155Z,14.87
2019-01-19T12:58:19.773Z,14.13
2019-01-19T13:00:48.394Z,14.73
2019-01-19T13:03:17.033Z,14.37
2019-01-19T13:05:50.824Z,14.30
2019-01-19T13:08:20.283Z,15.40
2019-01-19T13:10:58.759Z,15.67
2019-01-19T13:13:33.009Z,14.20
2019-01-19T13:16:32.695Z,13.00
2019-01-19T13:19:04.145Z,14.00
2019-01-19T13:21:58.179Z,15.63
2019-01-19T13:24:37.311Z,13.90
2019-01-19T13:27:11.945Z,12.20
2019-01-19T13:30:08.727Z,14.83
2019-01-19T13:32:46.861Z,14.43
2019-01-19T13:35:43.409Z,14.47
2019-01-19T13:38:23.957Z,13.13
2019-01-19T13:41:17.498Z,15.70
2019-01-19T13:44:05.249Z,14.20
2019-01-19T13:46:51.455Z,13.33
2019-01-19T13:49:42.163Z,13.50
2019-01-19T13:52:22.758Z,14.20
2019-01-19T13:55:05.356Z,13.27
2019-01-19T13:57:47.002Z,13.77
2019-01-19T14:00:34.743Z,15.50
2019-01-19T14:03:31.189Z,14.97
2019-01-19T14:06:21.666Z,13.63
2019-01-19T14:09:09.410Z,12.67
2019-01-19T14:11:51.963Z,14.30
2019-01-19T14:14:42.701Z,12.27
2019-01-19T14:17:19.033Z,13.60
2019-01-19T14:19:56.469Z,14.33
2019-01-19T14:22:56.150Z,14.47
2019-01-19T14:25:55.872Z,14.73
2019-01-19T14:28:33.184Z,12.90
2019-01-19T14:31:20.920Z,13.90
2019-01-19T14:34:07.319Z,14.90
2019-01-19T14:36:57.764Z,13.93
2019-01-19T14:39:57.362Z,14.20
2019-01-19T14:42:39.436Z,16.10
2019-01-19T14:45:21.230Z,14.37
2019-01-19T14:47:57.248Z,15.30
2019-01-19T14:50:49.002Z,15.17
2019-01-19T14:53:54.889Z,16.30
2019-01-19T14:56:26.964Z,16.43
2019-01-19T14:59:03.610Z,13.17
2019-01-19T15:01:38.649Z,14.97
2019-01-19T15:04:32.308Z,15.10
2019-01-19T15:07:26.458Z,14.43
2019-01-19T15:10:16.978Z,13.47
2019-01-19T15:12:54.020Z,14.07
2019-01-19T15:15:40.116Z,17.47
2019-01-19T15:18:26.646Z,14.40
2019-01-19T15:21:14.342Z,14.00
2019-01-19T15:24:00.470Z,14.43
2019-01-19T15:27:06.109Z,14.63
2019-01-19T15:30:02.974Z,14.20
2019-01-19T15:32:39.210Z,18.10
2019-01-19T15:35:19.265Z,15.10
2019-01-19T15:37:58.641Z,14.80
2019-01-19T15:40:52.394Z,13.63
2019-01-19T15:43:31.847Z,16.13
2019-01-19T15:46:05.080Z,15.47
2019-01-19T15:49:07.747Z,15.23
2019-01-19T15:51:55.540Z,14.40
2019-01-19T15:54:58.138Z,15.40
2019-01-19T15:57:29.324Z,14.97
2019-01-19T16:00:22.830Z,15.50
2019-01-19T16:03:09.324Z,16.97
2019-01-19T16:05:57.113Z,16.30
2019-01-19T16:08:30.386Z,15.87
2019-01-19T16:11:11.505Z,15.27
2019-01-19T16:14:02.461Z,15.17
2019-01-19T16:16:59.078Z,18.27
2019-01-19T16:19:53.366Z,16.43
2019-01-19T16:22:49.904Z,15.47
2019-01-19T16:25:31.248Z,16.20
2019-01-19T16:28:04.852Z,17.63
2019-01-19T16:30:48.160Z,17.33
2019-01-19T16:33:26.854Z,17.27
2019-01-19T16:36:01.773Z,17.13
2019-01-19T16:39:01.619Z,17.90
2019-01-19T16:41:52.103Z,20.33
2019-01-19T16:44:43.075Z,19.40
2019-01-19T16:47:25.919Z,16.80
2019-01-19T16:50:13.093Z,18.87
2019-01-19T16:53:09.880Z,18.03
2019-01-19T16:56:03.604Z,18.60
2019-01-19T16:59:03.352Z,21.33
2019-01-19T17:01:51.036Z,25.57
2019-01-19T17:04:24.234Z,19.30
2019-01-19T17:07:09.603Z,25.17
2019-01-19T17:09:50.219Z,18.97
2019-01-19T17:12:53.037Z,20.13
2019-01-19T17:15:46.370Z,17.60
2019-01-19T17:18:32.591Z,18.60
2019-01-19T17:21:20.363Z,18.93
2019-01-19T17:24:10.816Z,19.67
2019-01-19T17:27:01.551Z,19.40
2019-01-19T17:29:40.965Z,18.63
2019-01-19T17:32:22.362Z,20.20
2019-01-19T17:34:54.419Z,18.67
2019-01-19T17:37:34.049Z,19.37
2019-01-19T17:40:24.581Z,23.63
2019-01-19T17:43:10.675Z,22.27
2019-01-19T17:46:13.265Z,21.30
2019-01-19T17:48:53.619Z,20.70
2019-01-19T17:51:36.259Z,22.90
2019-01-19T17:54:27.037Z,19.37
2019-01-19T17:57:20.469Z,23.97
2019-01-19T18:00:09.252Z,20.90
2019-01-19T18:02:56.925Z,19.27
2019-01-19T18:05:42.865Z,20.00
2019-01-19T18:08:33.111Z,18.70
2019-01-19T18:11:09.791Z,23.50
2019-01-19T18:14:15.208Z,20.17
2019-01-19T18:17:03.098Z,20.47
2019-01-19T18:19:50.899Z,21.53
2019-01-19T18:22:41.727Z,20.63
2019-01-19T18:25:47.201Z,22.00
2019-01-19T18:28:21.517Z,20.07
2019-01-19T18:31:07.729Z,20.90
2019-01-19T18:33:53.635Z,21.23
2019-01-19T18:36:47.254Z,23.23
2019-01-19T18:39:41.069Z,21.40
2019-01-19T18:42:22.343Z,18.30
2019-01-19T18:45:10.068Z,23.20
2019-01-19T18:47:41.583Z,21.07
2019-01-19T18:50:29.321Z,22.67
2019-01-19T18:53:25.913Z,23.70
2019-01-19T18:56:13.697Z,23.43
2019-01-19T18:59:04.153Z,23.50
2019-01-19T19:02:09.821Z,25.60
2019-01-19T19:05:06.419Z,22.20
2019-01-19T19:07:52.730Z,27.17
2019-01-19T19:10:39.017Z,29.47
2019-01-19T19:13:24.536Z,23.67
2019-01-19T19:16:11.425Z,24.40
2019-01-19T19:18:59.154Z,23.90
2019-01-19T19:21:40.775Z,28.37
2019-01-19T19:24:28.485Z,23.13
2019-01-19T19:27:16.161Z,26.03
2019-01-19T19:30:09.798Z,24.73
2019-01-19T19:32:48.056Z,24.50
2019-01-19T19:35:41.417Z,23.63
2019-01-19T19:38:37.999Z,20.70
2019-01-19T19:41:27.198Z,20.60
2019-01-19T19:44:14.860Z,23.20
2019-01-19T19:46:52.187Z,22.03
2019-01-19T19:49:38.361Z,23.80
2019-01-19T19:52:07.024Z,22.43
2019-01-19T19:54:36.158Z,20.83
2019-01-19T19:57:04.875Z,22.20
2019-01-19T19:59:33.515Z,25.17
2019-01-19T20:02:02.106Z,22.77
2019-01-19T20:04:30.713Z,21.77
2019-01-19T20:06:59.530Z,21.83
2019-01-19T20:09:28.120Z,19.43
2019-01-19T20:12:01.090Z,21.00
2019-01-19T20:14:29.728Z,22.00
2019-01-19T20:16:58.308Z,23.20
2019-01-19T20:19:27.115Z,20.43
2019-01-19T20:21:55.754Z,18.60
2019-01-19T20:24:24.358Z,16.37
2019-01-19T20:26:52.960Z,19.67
2019-01-19T20:29:21.596Z,17.10
2019-01-19T20:31:50.200Z,20.07
2019-01-19T20:34:18.810Z,20.87
2019-01-19T20:36:47.572Z,18.23
2019-01-19T20:39:16.182Z,24.60
2019-01-19T20:41:44.782Z,18.97
2019-01-19T20:44:13.412Z,20.63
2019-01-19T20:46:42.014Z,18.63
2019-01-19T20:49:10.606Z,20.17
2019-01-19T20:51:39.230Z,20.97
2019-01-19T20:54:07.826Z,16.07
2019-01-19T20:56:36.428Z,18.93
2019-01-19T20:59:05.078Z,20.37
2019-01-19T21:01:33.662Z,20.97
2019-01-19T21:04:02.268Z,19.43
2019-01-19T21:06:30.880Z,19.00
2019-01-19T21:08:59.488Z,18.87
2019-01-19T21:11:28.097Z,19.30
2019-01-19T21:13:56.705Z,16.77
2019-01-19T21:16:25.327Z,18.53
2019-01-19T21:18:54.078Z,18.50
2019-01-19T21:21:22.790Z,21.90
2019-01-19T21:23:51.394Z,22.37
2019-01-19T21:26:19.991Z,23.73
2019-01-19T21:28:48.635Z,21.37
2019-01-19T21:31:17.244Z,23.20
2019-01-19T21:33:45.844Z,24.90
2019-01-19T21:36:14.486Z,22.70
2019-01-19T21:38:43.075Z,21.60
2019-01-19T21:41:11.667Z,22.47
2019-01-19T21:43:40.276Z,23.17
2019-01-19T21:46:08.875Z,23.97
2019-01-19T21:48:37.572Z,20.97
2019-01-19T21:51:06.175Z,24.30
2019-01-19T21:53:34.765Z,23.07
2019-01-19T21:56:03.387Z,25.40
2019-01-19T21:58:31.987Z,24.63
2019-01-19T22:01:00.572Z,23.20
2019-01-19T22:03:29.169Z,24.93
2019-01-19T22:05:57.803Z,24.40
2019-01-19T22:08:26.402Z,20.63
2019-01-19T22:10:55.001Z,21.13
2019-01-19T22:13:23.592Z,20.50
2019-01-19T22:15:52.203Z,20.77
2019-01-19T22:18:20.847Z,20.53
2019-01-19T22:20:49.689Z,22.37
2019-01-19T22:23:18.303Z,20.47
2019-01-19T22:25:46.908Z,22.53
2019-01-19T22:28:15.497Z,20.20
2019-01-19T22:30:44.091Z,20.03
2019-01-19T22:33:13.211Z,19.07
2019-01-19T22:35:42.067Z,20.03
2019-01-19T22:38:10.670Z,19.17
2019-01-19T22:40:39.267Z,18.50
2019-01-19T22:43:08.935Z,19.60
2019-01-19T22:45:37.602Z,20.53
2019-01-19T22:48:06.229Z,20.07
2019-01-19T22:50:34.895Z,21.13
2019-01-19T22:53:03.495Z,19.83
2019-01-19T22:55:32.117Z,21.57
2019-01-19T22:58:00.697Z,21.03
2019-01-19T23:00:39.419Z,19.30
2019-01-19T23:03:08.123Z,21.03
2019-01-19T23:05:36.710Z,19.83
2019-01-19T23:08:05.310Z,17.60
2019-01-19T23:10:34.173Z,20.53
2019-01-19T23:13:02.783Z,18.77
2019-01-19T23:15:31.425Z,19.07
2019-01-19T23:18:00.029Z,17.07
2019-01-19T23:20:28.619Z,17.73
2019-01-19T23:22:57.284Z,15.80
2019-01-19T23:25:25.925Z,16.50
2019-01-19T23:27:54.514Z,18.43
2019-01-19T23:30:23.125Z,16.20
2019-01-19T23:32:51.783Z,18.83
2019-01-19T23:35:20.389Z,15.90
2019-01-19T23:37:49.000Z,22.93
2019-01-19T23:40:17.581Z,27.83
2019-01-19T23:42:47.340Z,28.43
2019-01-19T23:45:16.161Z,26.40
2019-01-19T23:47:44.721Z,26.47
2019-01-19T23:50:13.405Z,26.17
2019-01-19T23:52:42.033Z,27.07
2019-01-19T23:55:10.695Z,29.30
2019-01-19T23:57:39.291Z,23.13
